This is the latest recevied weather packets stored in our database for station/object E23XBQ-1. If no packets are shown the sender has not sent any weather packets the latest 10 day(s).
| Time | Temp. | Humidity | Pressure | Rain* | Wind** | Luminosity | Snow |
|---|---|---|---|---|---|---|---|
| 1777513947 | 29.44° C | 74% | 975 hPa | - | - | 0 W/m² | - |
| 1777513322 | 28.33° C | 80% | 975 hPa | - | - | 0 W/m² | - |
| 1777512697 | 28.33° C | 80% | 975 hPa | - | - | 0 W/m² | - |
| 1777512073 | 28.33° C | 81% | 974 hPa | - | - | 0 W/m² | - |
| 1777511448 | 27.22° C | 87% | 974 hPa | - | - | 0 W/m² | - |
| 1777510823 | 26.11° C | 95% | 974 hPa | - | - | 0 W/m² | - |
| 1777510198 | 26.11° C | 97% | 974 hPa | - | - | 0 W/m² | - |
| 1777509574 | 26.11° C | 92% | 974 hPa | - | - | 0 W/m² | - |
| 1777508948 | 25° C | 99% | 974 hPa | - | - | 0 W/m² | - |
| 1777508321 | 24.44° C | 99% | 974 hPa | - | - | 0 W/m² | - |
| 1777507684 | 24.44° C | 99% | 973 hPa | - | - | 0 W/m² | - |
| 1777507055 | 24.44° C | 99% | 973 hPa | - | - | 0 W/m² | - |
| 1777506428 | 24.44° C | 99% | 973 hPa | - | - | 0 W/m² | - |
| 1777505803 | 23.89° C | 99% | 973 hPa | - | - | 0 W/m² | - |
| 1777505175 | 23.89° C | 99% | 973 hPa | - | - | 0 W/m² | - |
| 1777504547 | 23.89° C | 99% | 973 hPa | - | - | 0 W/m² | - |
| 1777503917 | 23.89° C | 99% | 972 hPa | - | - | 0 W/m² | - |
| 1777503292 | 23.33° C | 99% | 972 hPa | - | - | 0 W/m² | - |
| 1777502667 | 23.89° C | 99% | 972 hPa | - | - | 0 W/m² | - |
| 1777502035 | 23.89° C | 99% | 972 hPa | - | - | 0 W/m² | - |
| 1777501410 | 23.33° C | 99% | 972 hPa | - | - | 0 W/m² | - |
| 1777500785 | 23.33° C | 99% | 972 hPa | - | - | 0 W/m² | - |
| 1777500160 | 23.89° C | 99% | 972 hPa | - | - | 0 W/m² | - |
| 1777499536 | 23.89° C | 99% | 971 hPa | - | - | 0 W/m² | - |
| 1777498911 | 23.89° C | 99% | 971 hPa | - | - | 0 W/m² | - |
* Rain since midnight (hover to see other rain measurements)
** Current wind speed in m/s (hover to see current wind gust speed)